General Aviation Weather

Text Reports

Enter one or more of the following location identifiers separated by a space:

Zip Code, Four-Character ICAO or Three-Character IATA airport codes.

METAR - Aviation Routine Weather Report
KSKX - Taos, New Mexico
Updated at 3:35 AM GMT on July 25, 2014 (9:35 PM MDT):
METAR KSKX 250335Z AUTO 23006KT CLR 22/02 A3032 RMK AO1
TAF - Terminal Area Forecast
KSKX - Taos, New Mexico
Updated at 3:35 AM GMT on July 25, 2014 (9:35 PM MDT):
No TAF is currently available for this location.
Decoded:
No decoded TAF is available.
PIREP - Pilot Weather Report
KSKX - Taos, New Mexico
Updated at 3:35 AM GMT on July 25, 2014 (9:35 PM MDT):
No PIREP is currently available for this location.
AIRMET - Airmens Meteorological Information
KSKX - Taos, New Mexico
Updated at 3:35 AM GMT on July 25, 2014 (9:35 PM MDT):
No AIRMET is currently available for this location.
SIGMET - Significant Meteorological Information
KSKX - Taos, New Mexico
Updated at 3:35 AM GMT on July 25, 2014 (9:35 PM MDT):
No SIGMET is currently available for this location.
NOTAM - Notice to Airmen
KSKX - Taos, New Mexico
Updated at 3:35 AM GMT on July 25, 2014 (9:35 PM MDT):
No NOTAM is currently available for this location.
Forecast Area
KSKX - Taos, New Mexico
Updated at 3:35 AM GMT on July 25, 2014 (9:35 PM MDT):
No NOTAM is currently available for this location.
Aviation Weather Maps